createdAt,value
2024-01-31T00:00:18.173Z,-2.73
2024-01-31T00:02:44.532Z,-2.85
2024-01-31T00:05:11.218Z,-2.98
2024-01-31T00:07:37.595Z,-3.07
2024-01-31T00:10:03.933Z,-3.09
2024-01-31T00:12:30.389Z,-3.16
2024-01-31T00:14:56.774Z,-3.26
2024-01-31T00:17:23.138Z,-3.25
2024-01-31T00:19:49.741Z,-3.30
2024-01-31T00:22:16.124Z,-3.33
2024-01-31T00:24:42.508Z,-3.26
2024-01-31T00:27:08.882Z,-3.32
2024-01-31T00:29:38.722Z,-3.41
2024-01-31T00:32:01.847Z,-3.45
2024-01-31T00:34:28.304Z,-3.38
2024-01-31T00:36:54.740Z,-3.33
2024-01-31T00:39:21.207Z,-3.20
2024-01-31T00:41:47.643Z,-3.11
2024-01-31T00:44:14.102Z,-3.21
2024-01-31T00:46:40.567Z,-3.22
2024-01-31T00:49:07.195Z,-3.19
2024-01-31T00:51:33.387Z,-3.13
2024-01-31T00:53:59.779Z,-3.15
2024-01-31T00:56:26.154Z,-3.08
2024-01-31T00:58:52.679Z,-3.00
2024-01-31T01:01:19.132Z,-3.11
2024-01-31T01:03:45.472Z,-3.34
2024-01-31T01:06:11.900Z,-3.43
2024-01-31T01:08:38.307Z,-3.46
2024-01-31T01:11:04.762Z,-3.41
2024-01-31T01:13:31.210Z,-3.47
2024-01-31T01:15:57.655Z,-3.67
2024-01-31T01:18:24.066Z,-3.77
2024-01-31T01:20:50.486Z,-3.80
2024-01-31T01:23:16.918Z,-3.85
2024-01-31T01:25:43.479Z,-3.81
2024-01-31T01:28:09.820Z,-3.73
2024-01-31T01:30:36.166Z,-3.81
2024-01-31T01:33:02.750Z,-3.91
2024-01-31T01:35:29.075Z,-3.96
2024-01-31T01:37:55.615Z,-3.98
2024-01-31T01:40:22.085Z,-3.98
2024-01-31T01:42:48.446Z,-3.98
2024-01-31T01:45:14.808Z,-4.12
2024-01-31T01:47:41.267Z,-4.16
2024-01-31T01:50:07.700Z,-4.25
2024-01-31T01:52:34.163Z,-4.28
2024-01-31T01:55:00.481Z,-4.27
2024-01-31T01:57:26.963Z,-4.19
2024-01-31T01:59:53.402Z,-4.13
2024-01-31T02:02:19.834Z,-4.20
2024-01-31T02:04:46.281Z,-4.29
2024-01-31T02:07:12.675Z,-4.34
2024-01-31T02:09:38.981Z,-4.37
2024-01-31T02:12:05.486Z,-4.38
2024-01-31T02:14:31.822Z,-4.34
2024-01-31T02:16:58.352Z,-4.45
2024-01-31T02:19:24.738Z,-4.43
2024-01-31T02:21:51.191Z,-4.47
2024-01-31T02:24:17.637Z,-4.56
2024-01-31T02:26:44.071Z,-4.56
2024-01-31T02:29:10.490Z,-4.46
2024-01-31T02:31:37.052Z,-4.55
2024-01-31T02:34:03.598Z,-4.59
2024-01-31T02:36:29.787Z,-4.48
2024-01-31T02:38:56.135Z,-4.45
2024-01-31T02:41:22.552Z,-4.34
2024-01-31T02:43:48.915Z,-4.29
2024-01-31T02:46:15.447Z,-4.40
2024-01-31T02:48:41.963Z,-4.53
2024-01-31T02:51:08.292Z,-4.50
2024-01-31T02:53:34.638Z,-4.44
2024-01-31T02:56:01.170Z,-4.38
2024-01-31T02:58:27.621Z,-4.40
2024-01-31T03:00:54.106Z,-4.56
2024-01-31T03:03:20.421Z,-4.58
2024-01-31T03:05:46.950Z,-4.56
2024-01-31T03:08:13.201Z,-4.65
2024-01-31T03:10:39.920Z,-4.77
2024-01-31T03:13:06.234Z,-4.80
2024-01-31T03:15:32.645Z,-4.85
2024-01-31T03:17:59.052Z,-4.85
2024-01-31T03:20:25.488Z,-4.83
2024-01-31T03:22:51.929Z,-4.77
2024-01-31T03:25:18.387Z,-4.68
2024-01-31T03:27:44.786Z,-4.60
2024-01-31T03:30:11.360Z,-4.67
2024-01-31T03:32:37.996Z,-4.82
2024-01-31T03:35:04.479Z,-5.05
2024-01-31T03:37:30.887Z,-5.07
2024-01-31T03:39:57.387Z,-5.09
2024-01-31T03:42:23.751Z,-5.11
2024-01-31T03:44:50.128Z,-5.21
2024-01-31T03:47:16.508Z,-4.96
2024-01-31T03:49:43.010Z,-4.89
2024-01-31T03:52:09.396Z,-4.99
2024-01-31T03:54:35.867Z,-5.06
2024-01-31T03:57:02.297Z,-5.18
2024-01-31T03:59:28.752Z,-5.26
2024-01-31T04:01:55.286Z,-5.07
2024-01-31T04:04:21.611Z,-5.05
2024-01-31T04:06:47.924Z,-5.18
2024-01-31T04:09:14.368Z,-5.21
2024-01-31T04:11:40.785Z,-5.25
2024-01-31T04:14:07.241Z,-5.25
2024-01-31T04:16:33.721Z,-5.24
2024-01-31T04:19:00.225Z,-5.26
2024-01-31T04:21:26.520Z,-5.36
2024-01-31T04:23:53.070Z,-5.33
2024-01-31T04:26:19.403Z,-5.28
2024-01-31T04:28:45.856Z,-5.40
2024-01-31T04:31:12.328Z,-5.37
2024-01-31T04:33:38.908Z,-5.47
2024-01-31T04:36:05.269Z,-5.45
2024-01-31T04:38:31.795Z,-5.39
2024-01-31T04:40:58.150Z,-5.45
2024-01-31T04:43:24.717Z,-5.53
2024-01-31T04:45:51.056Z,-5.55
2024-01-31T04:48:17.768Z,-5.48
2024-01-31T04:50:43.993Z,-5.45
2024-01-31T04:53:10.364Z,-5.39
2024-01-31T04:55:36.830Z,-5.40
2024-01-31T04:58:03.243Z,-5.45
2024-01-31T05:00:29.667Z,-5.41
2024-01-31T05:02:56.200Z,-5.41
2024-01-31T05:05:22.645Z,-5.41
2024-01-31T05:07:49.078Z,-5.49
2024-01-31T05:10:15.505Z,-5.55
2024-01-31T05:12:41.924Z,-5.56
2024-01-31T05:15:08.317Z,-5.58
2024-01-31T05:17:34.829Z,-5.59
2024-01-31T05:20:01.390Z,-5.58
2024-01-31T05:22:27.664Z,-5.61
2024-01-31T05:24:53.979Z,-5.62
2024-01-31T05:27:20.450Z,-5.69
2024-01-31T05:29:46.803Z,-5.69
2024-01-31T05:32:13.281Z,-5.66
2024-01-31T05:34:39.689Z,-5.67
2024-01-31T05:37:06.184Z,-5.65
2024-01-31T05:39:32.513Z,-5.75
2024-01-31T05:41:59.026Z,-5.78
2024-01-31T05:44:25.414Z,-5.80
2024-01-31T05:46:51.921Z,-5.81
2024-01-31T05:49:18.467Z,-5.81
2024-01-31T05:51:44.764Z,-5.81
2024-01-31T05:54:11.194Z,-5.79
2024-01-31T05:56:37.623Z,-5.69
2024-01-31T05:59:03.972Z,-5.47
2024-01-31T06:01:30.594Z,-5.29
2024-01-31T06:03:56.997Z,-5.01
2024-01-31T06:06:23.532Z,-4.83
2024-01-31T06:08:49.823Z,-4.51
2024-01-31T06:11:16.222Z,-4.33
2024-01-31T06:13:42.626Z,-4.21
2024-01-31T06:16:09.115Z,-4.05
2024-01-31T06:18:35.706Z,-3.74
2024-01-31T06:21:01.911Z,-3.56
2024-01-31T06:23:28.230Z,-3.48
2024-01-31T06:25:54.762Z,-3.25
2024-01-31T06:28:21.256Z,-2.77
2024-01-31T06:30:47.830Z,-2.34
2024-01-31T06:33:14.332Z,-2.40
2024-01-31T06:35:40.776Z,-2.26
2024-01-31T06:38:07.184Z,-2.19
2024-01-31T06:40:33.712Z,-2.26
2024-01-31T06:43:00.081Z,-2.42
2024-01-31T06:45:26.499Z,-2.33
2024-01-31T06:47:52.957Z,-2.38
2024-01-31T06:50:19.614Z,-2.10
2024-01-31T06:52:45.847Z,-1.76
2024-01-31T06:55:12.191Z,-1.53
2024-01-31T06:57:40.744Z,-1.24
2024-01-31T07:00:07.245Z,-1.07
2024-01-31T07:02:33.669Z,-0.89
2024-01-31T07:05:00.338Z,-0.84
2024-01-31T07:07:26.700Z,-0.53
2024-01-31T07:09:53.078Z,-0.11
2024-01-31T07:12:19.442Z,-0.08
2024-01-31T07:14:45.924Z,0.06
2024-01-31T07:17:12.478Z,-0.06
2024-01-31T07:19:39.069Z,-0.20
2024-01-31T07:22:05.415Z,-0.36
2024-01-31T07:24:31.883Z,-0.67
2024-01-31T07:26:58.309Z,-1.15
2024-01-31T07:29:24.774Z,-0.85
2024-01-31T07:31:51.227Z,-0.62
2024-01-31T07:34:17.796Z,-0.30
2024-01-31T07:36:43.995Z,-0.44
2024-01-31T07:39:10.407Z,-0.19
2024-01-31T07:41:36.894Z,-0.12
2024-01-31T07:44:03.326Z,-0.03
2024-01-31T07:46:29.692Z,-0.13
2024-01-31T07:48:56.227Z,-0.39
2024-01-31T07:51:22.580Z,-0.27
2024-01-31T07:53:49.115Z,-0.29
2024-01-31T07:56:15.618Z,0.11
2024-01-31T07:58:42.099Z,-0.09
2024-01-31T08:01:09.545Z,-0.08
2024-01-31T08:03:34.797Z,0.53
2024-01-31T08:06:01.287Z,0.91
2024-01-31T08:08:27.670Z,1.20
2024-01-31T08:10:54.174Z,1.59
2024-01-31T08:13:20.592Z,2.02
2024-01-31T08:15:46.926Z,2.06
2024-01-31T08:18:13.423Z,1.95
2024-01-31T08:20:39.882Z,2.08
2024-01-31T08:23:06.229Z,2.41
2024-01-31T08:25:32.681Z,2.81
2024-01-31T08:27:59.161Z,2.74
2024-01-31T08:30:25.730Z,2.27
2024-01-31T08:32:52.179Z,2.20
2024-01-31T08:35:18.530Z,2.58
2024-01-31T08:37:45.325Z,2.78
2024-01-31T08:40:12.558Z,2.73
2024-01-31T08:42:38.033Z,2.41
2024-01-31T08:45:04.469Z,2.20
2024-01-31T08:47:30.818Z,2.39
2024-01-31T08:49:57.424Z,2.43
2024-01-31T08:52:23.750Z,2.66
2024-01-31T08:54:50.263Z,2.90
2024-01-31T08:57:18.817Z,3.73
2024-01-31T08:59:43.025Z,4.08
2024-01-31T09:02:09.450Z,4.42
2024-01-31T09:04:35.999Z,4.00
2024-01-31T09:07:02.481Z,4.54
2024-01-31T09:09:28.811Z,4.45
2024-01-31T09:11:55.236Z,4.26
2024-01-31T09:14:21.660Z,4.23
2024-01-31T09:16:48.063Z,3.66
2024-01-31T09:19:14.640Z,4.00
2024-01-31T09:21:40.976Z,4.67
2024-01-31T09:24:07.453Z,4.66
2024-01-31T09:26:33.833Z,4.37
2024-01-31T09:29:00.260Z,4.28
2024-01-31T09:31:26.765Z,4.65
2024-01-31T09:33:53.320Z,4.71
2024-01-31T09:36:19.597Z,5.16
2024-01-31T09:38:46.301Z,6.14
2024-01-31T09:41:12.696Z,5.71
2024-01-31T09:43:39.295Z,6.40
2024-01-31T09:46:06.676Z,6.49
2024-01-31T09:48:32.147Z,6.08
2024-01-31T09:50:58.419Z,5.55
2024-01-31T09:53:24.832Z,5.82
2024-01-31T09:55:51.274Z,6.43
2024-01-31T09:58:17.705Z,6.67
2024-01-31T10:00:44.116Z,6.65
2024-01-31T10:03:10.679Z,6.98
2024-01-31T10:05:36.948Z,6.94
2024-01-31T10:08:03.433Z,7.51
2024-01-31T10:10:31.890Z,7.36
2024-01-31T10:12:56.366Z,7.30
2024-01-31T10:15:22.738Z,7.43
2024-01-31T10:17:49.253Z,7.75
2024-01-31T10:20:15.789Z,7.19
2024-01-31T10:22:42.263Z,7.24
2024-01-31T10:25:08.613Z,7.78
2024-01-31T10:27:34.863Z,7.85
2024-01-31T10:30:01.218Z,7.16
2024-01-31T10:32:27.805Z,7.59
2024-01-31T10:35:11.478Z,7.72
2024-01-31T10:39:47.383Z,8.80
2024-01-31T10:42:13.710Z,9.11
2024-01-31T10:44:40.124Z,8.36
2024-01-31T10:47:06.540Z,8.50
2024-01-31T10:49:33.040Z,9.03
2024-01-31T10:51:59.389Z,8.79
2024-01-31T10:54:25.891Z,8.38
2024-01-31T10:56:52.274Z,8.73
2024-01-31T10:59:18.664Z,8.57
2024-01-31T11:01:45.135Z,8.46
2024-01-31T11:04:11.822Z,8.88
2024-01-31T11:06:38.522Z,9.47
2024-01-31T11:09:04.733Z,9.71
2024-01-31T11:11:31.191Z,10.33
2024-01-31T11:13:57.585Z,10.08
2024-01-31T11:16:23.944Z,9.69
2024-01-31T11:18:50.393Z,9.71
2024-01-31T11:21:16.800Z,9.59
2024-01-31T11:23:43.253Z,9.22
2024-01-31T11:26:09.779Z,9.68
2024-01-31T11:28:36.190Z,9.85
2024-01-31T11:31:03.865Z,9.43
2024-01-31T11:33:30.528Z,9.85
2024-01-31T11:35:56.908Z,10.04
2024-01-31T11:38:23.352Z,10.02
2024-01-31T11:40:49.718Z,9.84
2024-01-31T11:43:16.153Z,9.60
2024-01-31T11:45:42.838Z,9.68
2024-01-31T11:48:09.398Z,10.11
2024-01-31T11:50:35.816Z,10.81
2024-01-31T11:53:02.174Z,10.60
2024-01-31T11:55:28.651Z,10.52
2024-01-31T11:57:56.073Z,10.54
2024-01-31T12:00:22.647Z,10.47
2024-01-31T12:02:49.247Z,10.50
2024-01-31T12:05:15.579Z,10.34
2024-01-31T12:07:41.926Z,10.46
2024-01-31T12:10:08.460Z,10.60
2024-01-31T12:12:34.916Z,10.66
2024-01-31T12:15:01.525Z,11.02
2024-01-31T12:17:27.907Z,11.18
2024-01-31T12:19:54.439Z,10.99
2024-01-31T12:22:20.843Z,10.65
2024-01-31T12:24:47.358Z,11.08
2024-01-31T12:27:13.704Z,11.08
2024-01-31T12:29:40.734Z,10.92
2024-01-31T12:32:06.551Z,10.78
2024-01-31T12:34:33.044Z,10.81
2024-01-31T12:36:59.362Z,11.08
2024-01-31T12:39:26.064Z,11.32
2024-01-31T12:41:52.516Z,10.91
2024-01-31T12:44:19.156Z,10.46
2024-01-31T12:46:45.553Z,10.98
2024-01-31T12:49:12.176Z,11.16
2024-01-31T12:51:38.534Z,10.97
2024-01-31T12:54:05.213Z,11.10
2024-01-31T12:56:31.460Z,10.99
2024-01-31T12:58:58.457Z,10.92
2024-01-31T13:01:25.109Z,10.73
2024-01-31T13:03:51.588Z,11.00
2024-01-31T13:06:18.279Z,11.37
2024-01-31T13:08:44.550Z,11.22
2024-01-31T13:11:10.914Z,11.16
2024-01-31T13:13:37.475Z,11.46
2024-01-31T13:16:04.052Z,11.84
2024-01-31T13:18:30.697Z,11.43
2024-01-31T13:20:57.112Z,11.19
2024-01-31T13:23:23.734Z,11.07
2024-01-31T13:25:50.124Z,11.45
2024-01-31T13:28:16.564Z,11.76
2024-01-31T13:30:42.998Z,11.84
2024-01-31T13:33:09.697Z,11.63
2024-01-31T13:35:36.004Z,11.61
2024-01-31T13:38:02.494Z,11.70
2024-01-31T13:40:28.934Z,11.78
2024-01-31T13:42:55.372Z,11.85
2024-01-31T13:45:21.901Z,11.90
2024-01-31T13:47:48.514Z,11.85
2024-01-31T13:50:14.883Z,11.16
2024-01-31T13:52:41.440Z,11.31
2024-01-31T13:55:10.407Z,11.43
2024-01-31T13:57:37.076Z,11.45
2024-01-31T14:00:03.624Z,11.29
2024-01-31T14:02:30.212Z,11.25
2024-01-31T14:04:56.547Z,10.88
2024-01-31T14:07:23.113Z,10.34
2024-01-31T14:09:49.465Z,9.89
2024-01-31T14:12:15.954Z,9.53
2024-01-31T14:14:42.297Z,9.42
2024-01-31T14:17:09.161Z,9.31
2024-01-31T14:19:35.576Z,9.06
2024-01-31T14:22:12.780Z,8.95
2024-01-31T14:24:29.822Z,8.83
2024-01-31T14:26:55.092Z,8.61
2024-01-31T14:29:21.671Z,8.39
2024-01-31T14:31:48.073Z,8.26
2024-01-31T14:34:14.598Z,8.17
2024-01-31T14:36:41.123Z,8.02
2024-01-31T14:39:07.658Z,8.00
2024-01-31T14:41:34.127Z,7.99
2024-01-31T14:44:00.536Z,7.90
2024-01-31T14:46:27.051Z,7.76
2024-01-31T14:48:53.804Z,7.68
2024-01-31T14:51:19.989Z,7.57
2024-01-31T14:53:46.417Z,7.52
2024-01-31T14:56:14.030Z,7.48
2024-01-31T14:58:40.384Z,7.43
2024-01-31T15:01:06.828Z,7.33
2024-01-31T15:03:33.217Z,7.31
2024-01-31T15:06:00.699Z,7.22
2024-01-31T15:08:26.939Z,7.12
2024-01-31T15:10:53.378Z,7.00
2024-01-31T15:13:19.809Z,6.96
2024-01-31T15:15:46.327Z,6.87
2024-01-31T15:18:12.931Z,6.79
2024-01-31T15:20:39.332Z,6.71
2024-01-31T15:23:05.675Z,6.65
2024-01-31T15:25:32.296Z,6.61
2024-01-31T15:27:58.574Z,6.53
2024-01-31T15:30:25.131Z,6.42
2024-01-31T15:32:51.529Z,6.36
2024-01-31T15:35:17.844Z,6.30
2024-01-31T15:37:44.203Z,6.30
2024-01-31T15:40:10.758Z,6.26
2024-01-31T15:42:37.133Z,6.22
2024-01-31T15:45:03.649Z,6.15
2024-01-31T15:47:30.290Z,6.09
2024-01-31T15:49:56.732Z,5.92
2024-01-31T15:52:23.114Z,5.77
2024-01-31T15:54:49.659Z,5.73
2024-01-31T15:57:16.047Z,5.73
2024-01-31T15:59:42.571Z,5.72
2024-01-31T16:02:09.015Z,5.70
2024-01-31T16:04:35.465Z,5.60
2024-01-31T16:07:01.932Z,5.55
2024-01-31T16:09:28.327Z,5.52
2024-01-31T16:11:54.822Z,5.42
2024-01-31T16:14:21.192Z,5.34
2024-01-31T16:16:47.611Z,5.31
2024-01-31T16:19:14.098Z,5.29
2024-01-31T16:21:43.428Z,5.32
2024-01-31T16:24:06.973Z,5.29
2024-01-31T16:26:33.312Z,5.23
2024-01-31T16:28:59.789Z,5.19
2024-01-31T16:31:26.318Z,5.15
2024-01-31T16:33:52.808Z,5.08
2024-01-31T16:36:19.102Z,5.01
2024-01-31T16:38:45.521Z,4.95
2024-01-31T16:41:11.883Z,4.92
2024-01-31T16:43:38.277Z,4.88
2024-01-31T16:46:04.700Z,4.89
2024-01-31T16:48:31.186Z,4.81
2024-01-31T16:50:57.696Z,4.67
2024-01-31T16:53:24.177Z,4.60
2024-01-31T16:55:50.595Z,4.51
2024-01-31T16:58:16.983Z,4.47
2024-01-31T17:00:43.503Z,4.45
2024-01-31T17:03:10.083Z,4.48
2024-01-31T17:05:36.719Z,4.46
2024-01-31T17:08:03.312Z,4.45
2024-01-31T17:10:29.935Z,4.48
2024-01-31T17:12:56.716Z,4.45
2024-01-31T17:15:23.348Z,4.44
2024-01-31T17:17:50.194Z,4.48
2024-01-31T17:20:16.698Z,4.46
2024-01-31T17:22:43.485Z,4.40
2024-01-31T17:25:10.085Z,4.32
2024-01-31T17:27:36.824Z,4.21
2024-01-31T17:30:03.439Z,4.07
2024-01-31T17:32:30.209Z,3.93
2024-01-31T17:34:56.858Z,3.85
2024-01-31T17:37:23.485Z,3.80
2024-01-31T17:39:50.255Z,3.73
2024-01-31T17:42:16.964Z,3.68
2024-01-31T17:44:43.730Z,3.70
2024-01-31T17:47:10.235Z,3.64
2024-01-31T17:49:36.884Z,3.60
2024-01-31T17:52:03.495Z,3.50
2024-01-31T17:54:30.022Z,3.39
2024-01-31T17:56:56.856Z,3.27
2024-01-31T17:59:23.407Z,3.16
2024-01-31T18:01:50.034Z,3.02
2024-01-31T18:04:16.745Z,2.92
2024-01-31T18:06:43.347Z,2.90
2024-01-31T18:09:11.496Z,2.89
2024-01-31T18:11:36.870Z,2.86
2024-01-31T18:14:03.287Z,2.75
2024-01-31T18:16:29.763Z,2.67
2024-01-31T18:18:56.353Z,2.61
2024-01-31T18:21:22.860Z,2.57
2024-01-31T18:23:49.434Z,2.52
2024-01-31T18:26:15.845Z,2.48
2024-01-31T18:28:42.404Z,2.46
2024-01-31T18:31:08.924Z,2.37
2024-01-31T18:33:35.868Z,2.32
2024-01-31T18:36:02.184Z,2.11
2024-01-31T18:38:28.824Z,1.95
2024-01-31T18:40:55.438Z,1.99
2024-01-31T18:43:22.068Z,1.96
2024-01-31T18:45:48.752Z,1.93
2024-01-31T18:48:15.493Z,1.84
2024-01-31T18:50:42.008Z,1.79
2024-01-31T18:53:08.713Z,1.78
2024-01-31T18:55:35.488Z,1.78
2024-01-31T18:58:02.096Z,1.75
2024-01-31T19:00:28.614Z,1.72
2024-01-31T19:02:55.085Z,1.73
2024-01-31T19:05:21.354Z,1.80
2024-01-31T19:07:47.884Z,1.79
2024-01-31T19:10:14.264Z,1.71
2024-01-31T19:12:40.733Z,1.68
2024-01-31T19:15:07.207Z,1.67
2024-01-31T19:17:39.441Z,1.63
2024-01-31T19:19:59.973Z,1.55
2024-01-31T19:22:26.502Z,1.45
2024-01-31T19:24:52.831Z,1.40
2024-01-31T19:27:19.267Z,1.41
2024-01-31T19:29:45.812Z,1.41
2024-01-31T19:32:12.313Z,1.42
2024-01-31T19:34:38.942Z,1.47
2024-01-31T19:37:05.379Z,1.51
2024-01-31T19:39:31.728Z,1.51
2024-01-31T19:41:58.272Z,1.53
2024-01-31T19:44:24.631Z,1.61
2024-01-31T19:46:51.104Z,1.69
2024-01-31T19:49:17.570Z,1.67
2024-01-31T19:51:43.978Z,1.61
2024-01-31T19:54:13.000Z,1.56
2024-01-31T19:56:36.953Z,1.51
2024-01-31T19:59:03.271Z,1.47
2024-01-31T20:01:29.808Z,1.44
2024-01-31T20:03:56.166Z,1.27
2024-01-31T20:06:22.795Z,1.24
2024-01-31T20:08:49.126Z,1.03
2024-01-31T20:11:15.596Z,1.00
2024-01-31T20:13:42.017Z,0.98
2024-01-31T20:16:08.397Z,1.01
2024-01-31T20:18:34.962Z,1.04
2024-01-31T20:21:01.394Z,1.07
2024-01-31T20:23:27.719Z,1.01
2024-01-31T20:25:54.258Z,0.96
2024-01-31T20:28:20.603Z,1.01
2024-01-31T20:30:47.098Z,1.05
2024-01-31T20:33:13.564Z,0.91
2024-01-31T20:35:39.992Z,0.96
2024-01-31T20:38:06.361Z,1.14
2024-01-31T20:40:32.844Z,1.10
2024-01-31T20:42:59.081Z,1.03
2024-01-31T20:45:25.664Z,0.98
2024-01-31T20:47:52.236Z,0.93
2024-01-31T20:50:18.498Z,0.78
2024-01-31T20:52:44.913Z,0.74
2024-01-31T20:55:11.342Z,0.70
2024-01-31T20:57:39.855Z,0.65
2024-01-31T21:00:06.368Z,0.63
2024-01-31T21:02:32.901Z,0.63
2024-01-31T21:04:59.051Z,0.57
2024-01-31T21:07:25.450Z,0.48
2024-01-31T21:09:51.884Z,0.49
2024-01-31T21:12:18.412Z,0.41
2024-01-31T21:14:44.809Z,0.21
2024-01-31T21:17:11.131Z,0.14
2024-01-31T21:19:37.738Z,0.13
2024-01-31T21:22:03.958Z,0.21
2024-01-31T21:24:30.380Z,0.32
2024-01-31T21:26:56.985Z,0.15
2024-01-31T21:29:23.361Z,0.07
2024-01-31T21:31:49.702Z,0.10
2024-01-31T21:34:16.348Z,0.11
2024-01-31T21:36:42.680Z,0.10
2024-01-31T21:39:09.244Z,0.11
2024-01-31T21:41:35.576Z,0.11
2024-01-31T21:44:02.211Z,0.13
2024-01-31T21:46:28.572Z,0.10
2024-01-31T21:48:55.332Z,0.10
2024-01-31T21:51:21.440Z,0.05
2024-01-31T21:53:47.914Z,0.04
2024-01-31T21:56:14.306Z,0.10
2024-01-31T21:58:40.734Z,0.03
2024-01-31T22:01:07.247Z,0.07
2024-01-31T22:03:46.258Z,-0.06
2024-01-31T22:05:59.999Z,-0.31
2024-01-31T22:08:26.483Z,-0.27
2024-01-31T22:10:52.832Z,-0.37
2024-01-31T22:13:19.251Z,-0.38
2024-01-31T22:15:45.600Z,-0.37
2024-01-31T22:18:12.282Z,-0.33
2024-01-31T22:20:38.669Z,-0.19
2024-01-31T22:23:05.216Z,-0.21
2024-01-31T22:25:31.680Z,-0.21
2024-01-31T22:27:58.045Z,-0.30
2024-01-31T22:30:24.469Z,-0.41
2024-01-31T22:32:51.044Z,-0.53
2024-01-31T22:35:17.315Z,-0.60
2024-01-31T22:37:43.829Z,-0.64
2024-01-31T22:40:10.300Z,-0.80
2024-01-31T22:42:36.796Z,-0.83
2024-01-31T22:45:03.397Z,-0.71
2024-01-31T22:47:29.869Z,-0.64
2024-01-31T22:49:56.369Z,-0.67
2024-01-31T22:52:22.714Z,-0.75
2024-01-31T22:54:57.177Z,-0.92
2024-01-31T22:57:15.664Z,-1.03
2024-01-31T22:59:41.910Z,-1.10
2024-01-31T23:02:08.310Z,-1.13
2024-01-31T23:04:34.709Z,-1.14
2024-01-31T23:07:01.297Z,-1.18
2024-01-31T23:09:27.545Z,-1.07
2024-01-31T23:11:54.057Z,-1.11
2024-01-31T23:14:20.367Z,-1.13
2024-01-31T23:16:46.921Z,-1.14
2024-01-31T23:19:13.489Z,-1.15
2024-01-31T23:21:39.756Z,-1.26
2024-01-31T23:24:06.179Z,-1.36
2024-01-31T23:26:32.656Z,-1.36
2024-01-31T23:28:58.970Z,-1.32
2024-01-31T23:31:25.478Z,-1.29
2024-01-31T23:33:52.216Z,-1.35
2024-01-31T23:36:18.341Z,-1.24
2024-01-31T23:38:44.737Z,-1.31
2024-01-31T23:41:11.105Z,-1.43
2024-01-31T23:43:37.541Z,-1.51
2024-01-31T23:46:03.991Z,-1.35
2024-01-31T23:48:30.466Z,-1.35
2024-01-31T23:50:56.863Z,-1.46
2024-01-31T23:53:23.151Z,-1.48
2024-01-31T23:55:49.617Z,-1.55
2024-01-31T23:58:16.046Z,-1.60
